Aeroporto :
LOGIN :

Iscrizione | Disclaimer

   EN    FR    IT 

 










Sommario :    VFR   VFR Marginale   IFR   IFR Intensivo   IFR Molto Intensivo
Visibilità : 
Base nubi : 
>= 8 km
>= 3000ft
5 / 8 km
1000 / 3000 ft
1500m / 5 km
500 / 1000 ft
800 / 1500m
200 / 500 ft
< 800m
< 200 ft
Simboli :   Temporali  Nebbia  Neve Forte  Precipitazioni Forti  Vento > 20 kt
SIGMETs :   Varie  Temporali  Ghiacco  Turbolenza  Onda orograficha  Ceneri Vulcaniche






- Altitudine del aeroporto : 353 ft
- Codice IATA : CND


LRCK - Constanta

ULTIMO METAR :
  • 311730Z 27011KT CAVOK 19/06 Q1009 NOSIG

METARs OBSOLETI :
  • 311700Z 27012KT CAVOK 21/07 Q1009 NOSIG
  • 311630Z 26014KT CAVOK 21/07 Q1009 NOSIG
  • 311600Z 26014KT CAVOK 22/07 Q1009 NOSIG
  • 311530Z 25014KT CAVOK 22/06 Q1009 NOSIG
  • 311500Z 25014KT CAVOK 23/06 Q1009 NOSIG

TAF TAF LRCK
Valido dal 31 a 18 ore il 01 a 18 ore UTC


311700Z 3118/0118 26012KT CAVOK
BECMG 0109/0111 33014KT
PROB30
TEMPO 0113/0117 33020G30KT 5000 SHRA BKN010 SCT030CB



MetMap, La meteo Aeronautica in un colpo d'occhio ! - Copyright ORBIFLY Dicembre 2007 - Disclaimer

ORBIFLY MET'MAP TEAM :

Programmazione e sviluppo : Alexandra Zaïnal
Concezione : Baudouin d'Aumeries
Aiuto per la programmazione : Marc-Olivier Méhu
Supporto tecnico e logistico : Manuel Goepfert
Aiuto per la traduzione : Arnaldo La Scala

Contatto : metmap@orbifly.com




FONTI E CREDITI :

   NOAA